createdAt,value
2024-01-16T00:02:26.554Z,-1.05
2024-01-16T00:07:28.638Z,-1.11
2024-01-16T00:12:30.965Z,-1.13
2024-01-16T00:17:34.302Z,-1.07
2024-01-16T00:22:36.676Z,-0.99
2024-01-16T00:27:38.749Z,-1.11
2024-01-16T00:32:42.288Z,-1.11
2024-01-16T00:37:44.373Z,-1.04
2024-01-16T00:42:46.513Z,-1.04
2024-01-16T00:47:50.324Z,-1.07
2024-01-16T00:52:52.820Z,-1.08
2024-01-16T00:57:55.172Z,-1.01
2024-01-16T01:02:58.854Z,-1.10
2024-01-16T01:08:00.793Z,-0.96
2024-01-16T01:13:02.922Z,-0.84
2024-01-16T01:18:06.894Z,-0.77
2024-01-16T01:23:09.492Z,-0.58
2024-01-16T01:28:11.900Z,-0.34
2024-01-16T01:33:15.574Z,-1.04
2024-01-16T01:38:17.948Z,-1.34
2024-01-16T01:43:21.607Z,-1.42
2024-01-16T01:48:25.180Z,-1.88
2024-01-16T01:53:28.012Z,-1.82
2024-01-16T01:58:30.586Z,-2.11
2024-01-16T02:03:40.534Z,-2.17
2024-01-16T02:08:43.122Z,-2.31
2024-01-16T02:13:45.476Z,-2.27
2024-01-16T02:18:49.417Z,-2.16
2024-01-16T02:23:53.311Z,-2.40
2024-01-16T02:28:55.499Z,-2.30
2024-01-16T02:33:57.798Z,-2.49
2024-01-16T02:39:01.533Z,-2.30
2024-01-16T02:44:03.701Z,-2.23
2024-01-16T02:49:05.811Z,-2.06
2024-01-16T02:54:09.279Z,-2.27
2024-01-16T02:59:11.648Z,-2.39
2024-01-16T03:04:13.761Z,-2.31
2024-01-16T03:09:17.213Z,-2.30
2024-01-16T03:14:19.618Z,-2.28
2024-01-16T03:19:21.784Z,-2.36
2024-01-16T03:24:25.503Z,-2.33
2024-01-16T03:29:27.679Z,-2.20
2024-01-16T03:34:31.351Z,-2.28
2024-01-16T03:39:34.769Z,-2.31
2024-01-16T03:44:39.736Z,-2.38
2024-01-16T03:49:41.693Z,-2.43
2024-01-16T03:54:44.910Z,-2.25
2024-01-16T03:59:47.180Z,-2.40
2024-01-16T04:04:49.781Z,-2.35
2024-01-16T04:09:53.290Z,-2.44
2024-01-16T04:14:55.371Z,-2.47
2024-01-16T04:19:57.518Z,-2.59
2024-01-16T04:25:00.995Z,-2.68
2024-01-16T04:30:03.117Z,-2.80
2024-01-16T04:35:05.773Z,-2.83
2024-01-16T04:40:10.279Z,-2.93
2024-01-16T04:45:12.532Z,-3.02
2024-01-16T04:50:15.038Z,-2.92
2024-01-16T04:55:18.468Z,-3.11
2024-01-16T05:00:20.340Z,-3.26
2024-01-16T05:05:22.538Z,-3.03
2024-01-16T05:10:26.155Z,-3.21
2024-01-16T05:15:28.385Z,-3.24
2024-01-16T05:20:30.552Z,-3.34
2024-01-16T05:25:34.093Z,-3.36
2024-01-16T05:30:36.177Z,-3.62
2024-01-16T05:35:38.300Z,-3.65
2024-01-16T05:40:41.813Z,-3.76
2024-01-16T05:45:44.163Z,-3.81
2024-01-16T05:50:46.316Z,-3.89
2024-01-16T05:55:49.759Z,-3.97
2024-01-16T06:00:51.789Z,-3.97
2024-01-16T06:05:54.447Z,-3.42
2024-01-16T06:10:58.234Z,-3.36
2024-01-16T06:16:00.079Z,-3.00
2024-01-16T06:21:01.966Z,-2.79
2024-01-16T06:26:05.445Z,-2.66
2024-01-16T06:31:07.362Z,-2.55
2024-01-16T06:36:09.945Z,-2.53
2024-01-16T06:41:13.246Z,-2.55
2024-01-16T06:46:15.502Z,-2.59
2024-01-16T06:51:17.578Z,-2.45
2024-01-16T06:56:20.795Z,-2.32
2024-01-16T07:01:22.909Z,-2.33
2024-01-16T07:06:24.795Z,-2.40
2024-01-16T07:11:28.243Z,-2.25
2024-01-16T07:16:30.333Z,-2.16
2024-01-16T07:21:32.200Z,-2.06
2024-01-16T07:26:35.723Z,-2.14
2024-01-16T07:31:37.821Z,-2.09
2024-01-16T07:36:40.636Z,-2.17
2024-01-16T07:41:43.825Z,-2.03
2024-01-16T07:46:46.407Z,-1.78
2024-01-16T07:51:48.499Z,-1.82
2024-01-16T07:56:51.965Z,-1.80
2024-01-16T08:01:53.846Z,-1.64
2024-01-16T08:06:56.584Z,-1.67
2024-01-16T08:12:00.045Z,-1.37
2024-01-16T08:17:01.892Z,-1.37
2024-01-16T08:22:05.993Z,-1.30
2024-01-16T08:27:10.150Z,-1.33
2024-01-16T08:32:12.170Z,-1.13
2024-01-16T08:37:14.037Z,-1.18
2024-01-16T08:42:17.282Z,-1.21
2024-01-16T08:47:19.168Z,-1.03
2024-01-16T08:52:21.145Z,-0.94
2024-01-16T08:57:25.576Z,-0.86
2024-01-16T09:02:28.272Z,-0.82
2024-01-16T09:07:30.285Z,-0.87
2024-01-16T09:12:33.796Z,-0.74
2024-01-16T09:17:36.022Z,-0.80
2024-01-16T09:22:38.193Z,-0.72
2024-01-16T09:27:41.863Z,-0.65
2024-01-16T09:32:44.432Z,-0.79
2024-01-16T09:37:46.443Z,-0.63
2024-01-16T09:42:49.594Z,-0.62
2024-01-16T09:47:53.081Z,-0.29
2024-01-16T09:52:58.345Z,-0.19
2024-01-16T09:58:06.289Z,0.13
2024-01-16T10:03:08.873Z,0.01
2024-01-16T10:08:11.094Z,0.19
2024-01-16T10:13:15.785Z,0.09
2024-01-16T10:18:25.149Z,-0.27
2024-01-16T10:23:29.142Z,-0.10
2024-01-16T10:28:32.841Z,-0.05
2024-01-16T10:33:38.688Z,-0.14
2024-01-16T10:38:42.612Z,-0.19
2024-01-16T10:43:46.309Z,0.21
2024-01-16T10:49:00.664Z,0.07
2024-01-16T10:54:05.044Z,0.01
2024-01-16T10:59:17.941Z,-0.07
2024-01-16T11:04:21.685Z,-0.01
2024-01-16T11:09:23.769Z,0.09
2024-01-16T11:14:29.761Z,0.36
2024-01-16T11:24:39.784Z,0.62
2024-01-16T11:29:43.259Z,0.40
2024-01-16T11:34:54.702Z,0.52
2024-01-16T11:40:25.571Z,0.38
2024-01-16T11:45:50.283Z,0.41
2024-01-16T11:50:53.532Z,0.49
2024-01-16T11:56:18.704Z,0.70
2024-01-16T12:01:22.852Z,0.45
2024-01-16T12:06:24.963Z,0.51
2024-01-16T12:11:33.443Z,0.78
2024-01-16T12:16:43.942Z,0.48
2024-01-16T12:21:46.663Z,0.52
2024-01-16T12:26:48.942Z,0.51
2024-01-16T12:32:06.351Z,0.35
2024-01-16T12:37:08.375Z,0.35
2024-01-16T12:42:11.691Z,0.26
2024-01-16T12:47:17.728Z,0.28
2024-01-16T12:52:20.609Z,0.20
2024-01-16T12:57:22.670Z,0.13
2024-01-16T13:02:26.923Z,0.17
2024-01-16T13:07:29.520Z,0.10
2024-01-16T13:12:31.747Z,0.10
2024-01-16T13:17:36.053Z,0.21
2024-01-16T13:22:44.632Z,0.16
2024-01-16T13:27:49.756Z,0.03
2024-01-16T13:32:53.488Z,0.22
2024-01-16T13:37:55.801Z,0.21
2024-01-16T13:42:57.717Z,0.28
2024-01-16T13:48:01.405Z,0.16
2024-01-16T13:53:03.966Z,0.23
2024-01-16T13:58:05.918Z,0.21
2024-01-16T14:03:09.593Z,0.05
2024-01-16T14:08:11.733Z,0.04
2024-01-16T14:13:13.845Z,-0.03
2024-01-16T14:18:17.464Z,-0.07
2024-01-16T14:23:19.610Z,-0.02
2024-01-16T14:28:26.894Z,-0.06
2024-01-16T14:33:36.250Z,-0.26
2024-01-16T14:38:40.088Z,-0.22
2024-01-16T14:43:41.925Z,-0.12
2024-01-16T14:48:46.551Z,-0.18
2024-01-16T14:54:03.885Z,-0.17
2024-01-16T14:59:18.623Z,-0.07
2024-01-16T15:04:33.102Z,-0.12
2024-01-16T15:09:42.426Z,-0.22
2024-01-16T15:15:20.610Z,-0.19
2024-01-16T15:21:00.392Z,-0.22
2024-01-16T15:26:09.935Z,-0.32
2024-01-16T15:31:19.419Z,-0.47
2024-01-16T15:37:08.050Z,-0.44
2024-01-16T15:42:22.210Z,-0.65
2024-01-16T15:47:31.747Z,-0.66
2024-01-16T15:52:38.969Z,-0.60
2024-01-16T15:57:58.178Z,-0.61
2024-01-16T16:03:01.969Z,-0.48
2024-01-16T16:08:09.209Z,-0.33
2024-01-16T16:13:28.577Z,-0.21
2024-01-16T16:18:48.136Z,-0.16
2024-01-16T16:24:14.646Z,-0.15
2024-01-16T16:29:35.515Z,-0.22
2024-01-16T16:34:49.565Z,-0.20
2024-01-16T16:40:01.401Z,-0.23
2024-01-16T16:45:52.097Z,-0.34
2024-01-16T16:51:30.180Z,-0.48
2024-01-16T16:56:36.169Z,-0.57
2024-01-16T17:07:53.315Z,-0.59
2024-01-16T17:13:08.779Z,-0.68
2024-01-16T17:18:48.696Z,-0.75
2024-01-16T17:24:20.210Z,-0.92
2024-01-16T17:29:49.761Z,-1.00
2024-01-16T17:35:11.842Z,-1.10
2024-01-16T17:46:11.287Z,-1.24
2024-01-16T17:51:35.980Z,-1.30
2024-01-16T17:57:05.400Z,-1.32
2024-01-16T18:02:23.803Z,-1.38
2024-01-16T18:07:34.561Z,-1.49
2024-01-16T18:12:41.988Z,-1.64
2024-01-16T18:17:53.382Z,-1.69
2024-01-16T18:28:52.410Z,-1.73
2024-01-16T18:34:14.761Z,-1.71
2024-01-16T18:40:06.528Z,-1.74
2024-01-16T18:45:28.324Z,-1.65
2024-01-16T18:56:55.595Z,-1.67
2024-01-16T19:02:29.691Z,-1.79
2024-01-16T19:08:14.872Z,-1.93
2024-01-16T19:13:46.742Z,-2.04
2024-01-16T19:19:16.267Z,-2.13
2024-01-16T19:31:30.768Z,-2.15
2024-01-16T19:43:25.366Z,-1.88
2024-01-16T19:48:57.635Z,-1.81
2024-01-16T19:54:40.762Z,-1.71
2024-01-16T20:06:42.637Z,-1.59
2024-01-16T20:12:16.040Z,-1.51
2024-01-16T20:18:08.115Z,-1.44
2024-01-16T20:35:01.305Z,-1.43
2024-01-16T20:46:38.749Z,-1.42
2024-01-16T20:52:03.163Z,-1.43
2024-01-16T20:57:39.267Z,-1.54
2024-01-16T21:03:10.585Z,-1.66
2024-01-16T21:08:22.869Z,-1.73
2024-01-16T21:14:05.302Z,-1.83
2024-01-16T21:19:16.213Z,-1.78
2024-01-16T21:24:18.844Z,-1.73
2024-01-16T21:29:23.293Z,-1.85
2024-01-16T21:34:26.614Z,-1.76
2024-01-16T21:39:28.711Z,-1.78
2024-01-16T21:44:32.857Z,-1.80
2024-01-16T21:49:34.746Z,-1.79
2024-01-16T21:54:36.850Z,-1.79
2024-01-16T21:59:40.279Z,-1.81
2024-01-16T22:04:42.239Z,-1.96
2024-01-16T22:09:44.183Z,-2.20
2024-01-16T22:14:47.460Z,-2.37
2024-01-16T22:19:50.621Z,-2.41
2024-01-16T22:24:52.724Z,-2.76
2024-01-16T22:29:56.247Z,-3.02
2024-01-16T22:34:58.452Z,-3.03
2024-01-16T22:40:00.381Z,-3.03
2024-01-16T22:45:04.486Z,-2.84
2024-01-16T22:50:07.981Z,-2.83
2024-01-16T22:55:10.534Z,-2.85
2024-01-16T23:00:14.915Z,-2.92
2024-01-16T23:05:17.738Z,-3.05
2024-01-16T23:10:20.285Z,-3.32
2024-01-16T23:15:23.780Z,-3.33
2024-01-16T23:20:25.826Z,-3.33
2024-01-16T23:25:27.877Z,-3.39
2024-01-16T23:30:31.971Z,-3.48
2024-01-16T23:35:34.285Z,-3.54
2024-01-16T23:40:36.338Z,-3.50
2024-01-16T23:45:39.670Z,-3.57
2024-01-16T23:50:41.887Z,-3.78
2024-01-16T23:55:43.921Z,-3.98
